Aérodrome :
LOGIN :

S'inscrire | Disclaimer

   EN    FR    IT 

 










Légende :    VFR   VFR Marginal   IFR   IFR Intensif   IFR Très Intensif
Visi : 
Plafond : 
>= 8 km
>= 3000ft
5 à 8 km
1000 à 3000 ft
1500m à 5 km
500 à 1000 ft
800 à 1500m
200 à 500 ft
< 800m
< 200 ft
Symboles :   Orages  Brouillard  Fortes neiges  Fortes précipitations  Vent > 20 kt
SIGMETs :   Divers  Orages  Givrage  Turbulence  Onde Orograph.  Cendres Volcan.






- Altitude de l'aérodrome : 49 ft
- Code IATA : SEN


EGMC - Southend

DERNIER METAR :
  • 261720Z 26010KT 9999 FEW049 06/00 Q1006

METARs EXPIRÉS :
  • 261650Z 28009KT 250V320 9999 FEW044 06/M01 Q1006
  • 261620Z 28012KT 9999 FEW017 06/01 Q1005
  • 261550Z 27011KT 9999 FEW017 SCT038 07/01 Q1005
  • 261520Z 29008KT 250V320 9999 VCSH FEW008 SCT044 07/01 Q1005
  • 261450Z 29013G28KT 250V320 9999 VCSH FEW008 SCT035 06/01 Q1005

TAF TAF EGMC
Valide du 26 à 18h jusqu'au 27 à 03h UTC


261706Z 2618/2703 28012KT 9999 FEW030
BECMG 2622/2624 22008KT



MET'MAP, la Météo Aéronautique d'un coup d'oeil ! - Copyright ORBIFLY Décembre 2007 - Disclaimer

ORBIFLY MET'MAP TEAM :

Programmation & Développement : Alexandra Zaïnal
Sur une idée originale de : Baudouin d'Aumeries
Assistance à la programmation : Marc-Olivier Méhu
Soutien technique & logistique : Manuel Goepfert

Contact : metmap@orbifly.com




SOURCES & CREDITS :

   NOAA